Station Historical Data
Daily Summary for January 26, 2017 Units:  Both    English   Metric
« Previous Day
Next Day »
Daily Weekly Monthly Yearly Custom
  High: Low: Average:
Temperature: 45.4 °F /  7.4 °C 34.4 °F /  1.3 °C 36.8 °F /  2.7 °C
Dew Point: 40.2 °F /  4.6 °C 29.8 °F /  -1.2 °C 33.3 °F /  0.7 °C
Humidity: 93% 81% 87%
Wind Speed: 24.0mph /  38.6km/h - 8.5mph /  13.7km/h
Wind Gust: 28.0mph /  45.1km/h - -
Wind- - WSW
Pressure: 29.65 in /  1003.9 hPa 29.40 in /  995.5 hPa -
Precipitation: 0.00 in /  0 mm    
Historical Graphs
 
 
Tabular Data for January 26, 2017
Time Temperature Dew Point Pressure Wind Wind Speed Wind Gust Humidity Rainfall Rate (Hourly)
00:04 45.4 °F /  7.4 °C 40.2 °F /  4.6 °C 29.43in /  996.5hPa West 6.0mph /  9.7km/h 19.0mph /  30.6km/h 82% 0.00in /  0mm
00:09 45.0 °F /  7.2 °C 40.1 °F /  4.5 °C 29.42in /  996.2hPa WSW 10.0mph /  16.1km/h 19.0mph /  30.6km/h 83% 0.00in /  0mm
00:14 44.7 °F /  7.1 °C 39.9 °F /  4.4 °C 29.43in /  996.5hPa WSW 9.0mph /  14.5km/h 23.0mph /  37km/h 83% 0.00in /  0mm
00:19 44.5 °F /  6.9 °C 39.7 °F /  4.3 °C 29.43in /  996.5hPa SW 8.0mph /  12.9km/h 16.0mph /  25.7km/h 83% 0.00in /  0mm
00:24 44.3 °F /  6.8 °C 39.5 °F /  4.2 °C 29.42in /  996.2hPa WSW 9.0mph /  14.5km/h 18.0mph /  29km/h 83% 0.00in /  0mm
00:29 44.2 °F /  6.8 °C 39.4 °F /  4.1 °C 29.42in /  996.2hPa SSW 7.0mph /  11.3km/h 15.0mph /  24.1km/h 83% 0.00in /  0mm
00:34 44.1 °F /  6.7 °C 39.0 °F /  3.9 °C 29.43in /  996.5hPa SW 7.0mph /  11.3km/h 22.0mph /  35.4km/h 82% 0.00in /  0mm
00:39 43.6 °F /  6.4 °C 38.8 °F /  3.8 °C 29.43in /  996.5hPa WSW 10.0mph /  16.1km/h 22.0mph /  35.4km/h 83% 0.00in /  0mm
00:44 43.1 °F /  6.2 °C 38.0 °F /  3.3 °C 29.43in /  996.5hPa SW 10.0mph /  16.1km/h 23.0mph /  37km/h 82% 0.00in /  0mm
00:49 42.6 °F /  5.9 °C 37.8 °F /  3.2 °C 29.43in /  996.5hPa WSW 10.0mph /  16.1km/h 23.0mph /  37km/h 83% 0.00in /  0mm
00:54 42.1 °F /  5.6 °C 37.3 °F /  2.9 °C 29.43in /  996.5hPa SW 20.0mph /  32.2km/h 20.0mph /  32.2km/h 83% 0.00in /  0mm
00:59 41.7 °F /  5.4 °C 37.2 °F /  2.9 °C 29.44in /  996.8hPa West 19.0mph /  30.6km/h 22.0mph /  35.4km/h 84% 0.00in /  0mm
01:04 41.3 °F /  5.2 °C 37.1 °F /  2.8 °C 29.43in /  996.5hPa WSW 6.0mph /  9.7km/h 19.0mph /  30.6km/h 85% 0.00in /  0mm
01:09 41.0 °F /  5 °C 36.8 °F /  2.7 °C 29.43in /  996.5hPa WSW 10.0mph /  16.1km/h 19.0mph /  30.6km/h 85% 0.00in /  0mm
01:14 40.6 °F /  4.8 °C 36.4 °F /  2.4 °C 29.44in /  996.8hPa WSW 10.0mph /  16.1km/h 18.0mph /  29km/h 85% 0.00in /  0mm
01:19 40.4 °F /  4.7 °C 36.2 °F /  2.3 °C 29.44in /  996.8hPa WSW 11.0mph /  17.7km/h 20.0mph /  32.2km/h 85% 0.00in /  0mm
01:24 40.2 °F /  4.6 °C 36.3 °F /  2.4 °C 29.44in /  996.8hPa WSW 10.0mph /  16.1km/h 20.0mph /  32.2km/h 86% 0.00in /  0mm
01:29 40.0 °F /  4.4 °C 36.2 °F /  2.3 °C 29.44in /  996.8hPa WSW 12.0mph /  19.3km/h 19.0mph /  30.6km/h 86% 0.00in /  0mm
01:34 39.9 °F /  4.4 °C 36.1 °F /  2.3 °C 29.44in /  996.8hPa WSW 8.0mph /  12.9km/h 22.0mph /  35.4km/h 86% 0.00in /  0mm
01:39 39.7 °F /  4.3 °C 35.9 °F /  2.2 °C 29.44in /  996.8hPa SW 10.0mph /  16.1km/h 18.0mph /  29km/h 86% 0.00in /  0mm
01:44 39.6 °F /  4.2 °C 35.8 °F /  2.1 °C 29.44in /  996.8hPa WSW 10.0mph /  16.1km/h 19.0mph /  30.6km/h 86% 0.00in /  0mm
01:49 39.5 °F /  4.2 °C 36.0 °F /  2.2 °C 29.43in /  996.5hPa WSW 9.0mph /  14.5km/h 19.0mph /  30.6km/h 87% 0.00in /  0mm
01:54 39.4 °F /  4.1 °C 35.9 °F /  2.2 °C 29.44in /  996.8hPa WSW 9.0mph /  14.5km/h 18.0mph /  29km/h 87% 0.00in /  0mm
01:59 39.3 °F /  4.1 °C 35.8 °F /  2.1 °C 29.44in /  996.8hPa WSW 8.0mph /  12.9km/h 22.0mph /  35.4km/h 87% 0.00in /  0mm
02:04 39.2 °F /  4 °C 35.7 °F /  2.1 °C 29.44in /  996.8hPa SW 8.0mph /  12.9km/h 22.0mph /  35.4km/h 87% 0.00in /  0mm
02:09 39.1 °F /  3.9 °C 35.6 °F /  2 °C 29.44in /  996.8hPa SW 9.0mph /  14.5km/h 17.0mph /  27.4km/h 87% 0.00in /  0mm
02:14 39.0 °F /  3.9 °C 35.5 °F /  1.9 °C 29.45in /  997.2hPa SW 9.0mph /  14.5km/h 18.0mph /  29km/h 87% 0.00in /  0mm
02:19 39.0 °F /  3.9 °C 35.5 °F /  1.9 °C 29.44in /  996.8hPa West 8.0mph /  12.9km/h 16.0mph /  25.7km/h 87% 0.00in /  0mm
02:24 39.0 °F /  3.9 °C 35.5 °F /  1.9 °C 29.45in /  997.2hPa West 7.0mph /  11.3km/h 17.0mph /  27.4km/h 87% 0.00in /  0mm
02:29 39.0 °F /  3.9 °C 35.5 °F /  1.9 °C 29.44in /  996.8hPa West 10.0mph /  16.1km/h 20.0mph /  32.2km/h 87% 0.00in /  0mm
02:34 39.0 °F /  3.9 °C 35.5 °F /  1.9 °C 29.44in /  996.8hPa SW 9.0mph /  14.5km/h 22.0mph /  35.4km/h 87% 0.00in /  0mm
02:39 39.0 °F /  3.9 °C 35.5 °F /  1.9 °C 29.44in /  996.8hPa SW 3.0mph /  4.8km/h 17.0mph /  27.4km/h 87% 0.00in /  0mm
02:44 38.9 °F /  3.8 °C 35.4 °F /  1.9 °C 29.43in /  996.5hPa WSW 4.0mph /  6.4km/h 20.0mph /  32.2km/h 87% 0.00in /  0mm
02:49 38.9 °F /  3.8 °C 35.4 °F /  1.9 °C 29.44in /  996.8hPa WSW 8.0mph /  12.9km/h 20.0mph /  32.2km/h 87% 0.00in /  0mm
02:54 39.0 °F /  3.9 °C 35.5 °F /  1.9 °C 29.43in /  996.5hPa WSW 8.0mph /  12.9km/h 19.0mph /  30.6km/h 87% 0.00in /  0mm
02:59 38.9 °F /  3.8 °C 35.4 °F /  1.9 °C 29.43in /  996.5hPa WSW 8.0mph /  12.9km/h 16.0mph /  25.7km/h 87% 0.00in /  0mm
03:04 38.8 °F /  3.8 °C 35.3 °F /  1.8 °C 29.43in /  996.5hPa West 5.0mph /  8km/h 16.0mph /  25.7km/h 87% 0.00in /  0mm
03:09 38.8 °F /  3.8 °C 35.3 °F /  1.8 °C 29.43in /  996.5hPa WSW 7.0mph /  11.3km/h 16.0mph /  25.7km/h 87% 0.00in /  0mm
03:14 38.7 °F /  3.7 °C 35.2 °F /  1.8 °C 29.43in /  996.5hPa SW 8.0mph /  12.9km/h 18.0mph /  29km/h 87% 0.00in /  0mm
03:19 38.6 °F /  3.7 °C 35.1 °F /  1.7 °C 29.43in /  996.5hPa SW 8.0mph /  12.9km/h 17.0mph /  27.4km/h 87% 0.00in /  0mm
03:24 38.5 °F /  3.6 °C 35.0 °F /  1.7 °C 29.43in /  996.5hPa West 6.0mph /  9.7km/h 15.0mph /  24.1km/h 87% 0.00in /  0mm
03:29 38.5 °F /  3.6 °C 35.0 °F /  1.7 °C 29.43in /  996.5hPa SW 7.0mph /  11.3km/h 18.0mph /  29km/h 87% 0.00in /  0mm
03:34 38.4 °F /  3.6 °C 34.9 °F /  1.6 °C 29.43in /  996.5hPa SW 9.0mph /  14.5km/h 17.0mph /  27.4km/h 87% 0.00in /  0mm
03:39 38.3 °F /  3.5 °C 34.8 °F /  1.6 °C 29.43in /  996.5hPa WSW 7.0mph /  11.3km/h 18.0mph /  29km/h 87% 0.00in /  0mm
03:44 38.3 °F /  3.5 °C 34.8 °F /  1.6 °C 29.43in /  996.5hPa WSW 9.0mph /  14.5km/h 19.0mph /  30.6km/h 87% 0.00in /  0mm
03:49 38.2 °F /  3.4 °C 34.7 °F /  1.5 °C 29.42in /  996.2hPa WSW 7.0mph /  11.3km/h 16.0mph /  25.7km/h 87% 0.00in /  0mm
03:54 38.2 °F /  3.4 °C 34.7 °F /  1.5 °C 29.43in /  996.5hPa SW 9.0mph /  14.5km/h 16.0mph /  25.7km/h 87% 0.00in /  0mm
03:59 38.1 °F /  3.4 °C 34.6 °F /  1.4 °C 29.42in /  996.2hPa SW 8.0mph /  12.9km/h 16.0mph /  25.7km/h 87% 0.00in /  0mm
04:04 38.0 °F /  3.3 °C 34.8 °F /  1.6 °C 29.42in /  996.2hPa SW 7.0mph /  11.3km/h 13.0mph /  20.9km/h 88% 0.00in /  0mm
04:09 38.0 °F /  3.3 °C 34.8 °F /  1.6 °C 29.42in /  996.2hPa SW 8.0mph /  12.9km/h 14.0mph /  22.5km/h 88% 0.00in /  0mm
04:14 38.0 °F /  3.3 °C 34.8 °F /  1.6 °C 29.42in /  996.2hPa SW 8.0mph /  12.9km/h 17.0mph /  27.4km/h 88% 0.00in /  0mm
04:19 37.9 °F /  3.3 °C 34.7 °F /  1.5 °C 29.42in /  996.2hPa WSW 14.0mph /  22.5km/h 18.0mph /  29km/h 88% 0.00in /  0mm
04:24 37.9 °F /  3.3 °C 34.7 °F /  1.5 °C 29.42in /  996.2hPa SW 4.0mph /  6.4km/h 14.0mph /  22.5km/h 88% 0.00in /  0mm
04:29 37.8 °F /  3.2 °C 34.6 °F /  1.4 °C 29.42in /  996.2hPa SW 8.0mph /  12.9km/h 17.0mph /  27.4km/h 88% 0.00in /  0mm
04:34 37.8 °F /  3.2 °C 34.6 °F /  1.4 °C 29.42in /  996.2hPa WSW 9.0mph /  14.5km/h 15.0mph /  24.1km/h 88% 0.00in /  0mm
04:39 37.9 °F /  3.3 °C 34.7 °F /  1.5 °C 29.42in /  996.2hPa SW 8.0mph /  12.9km/h 15.0mph /  24.1km/h 88% 0.00in /  0mm
04:49 37.8 °F /  3.2 °C 34.6 °F /  1.4 °C 29.42in /  996.2hPa West 6.0mph /  9.7km/h 15.0mph /  24.1km/h 88% 0.00in /  0mm
04:54 37.8 °F /  3.2 °C 34.6 °F /  1.4 °C 29.42in /  996.2hPa SW 4.0mph /  6.4km/h 13.0mph /  20.9km/h 88% 0.00in /  0mm
04:59 37.8 °F /  3.2 °C 34.6 °F /  1.4 °C 29.42in /  996.2hPa SW 8.0mph /  12.9km/h 16.0mph /  25.7km/h 88% 0.00in /  0mm
05:04 37.7 °F /  3.2 °C 34.5 °F /  1.4 °C 29.42in /  996.2hPa SW 8.0mph /  12.9km/h 16.0mph /  25.7km/h 88% 0.00in /  0mm
05:09 37.7 °F /  3.2 °C 34.5 °F /  1.4 °C 29.42in /  996.2hPa SW 6.0mph /  9.7km/h 18.0mph /  29km/h 88% 0.00in /  0mm
05:14 37.7 °F /  3.2 °C 34.5 °F /  1.4 °C 29.42in /  996.2hPa SW 8.0mph /  12.9km/h 18.0mph /  29km/h 88% 0.00in /  0mm
05:19 37.6 °F /  3.1 °C 34.4 °F /  1.3 °C 29.42in /  996.2hPa SW 14.0mph /  22.5km/h 19.0mph /  30.6km/h 88% 0.00in /  0mm
05:24 37.5 °F /  3.1 °C 34.3 °F /  1.3 °C 29.42in /  996.2hPa WSW 9.0mph /  14.5km/h 18.0mph /  29km/h 88% 0.00in /  0mm
05:29 37.5 °F /  3.1 °C 34.3 °F /  1.3 °C 29.42in /  996.2hPa SW 9.0mph /  14.5km/h 19.0mph /  30.6km/h 88% 0.00in /  0mm
05:34 37.5 °F /  3.1 °C 34.3 °F /  1.3 °C 29.42in /  996.2hPa SW 9.0mph /  14.5km/h 19.0mph /  30.6km/h 88% 0.00in /  0mm
05:39 37.5 °F /  3.1 °C 34.0 °F /  1.1 °C 29.42in /  996.2hPa SW 13.0mph /  20.9km/h 14.0mph /  22.5km/h 87% 0.00in /  0mm
05:44 37.4 °F /  3 °C 33.9 °F /  1.1 °C 29.42in /  996.2hPa WSW 14.0mph /  22.5km/h 17.0mph /  27.4km/h 87% 0.00in /  0mm
05:49 37.5 °F /  3.1 °C 34.0 °F /  1.1 °C 29.42in /  996.2hPa WSW 4.0mph /  6.4km/h 17.0mph /  27.4km/h 87% 0.00in /  0mm
05:54 37.4 °F /  3 °C 33.9 °F /  1.1 °C 29.43in /  996.5hPa SW 17.0mph /  27.4km/h 18.0mph /  29km/h 87% 0.00in /  0mm
05:59 37.4 °F /  3 °C 33.9 °F /  1.1 °C 29.42in /  996.2hPa WSW 9.0mph /  14.5km/h 17.0mph /  27.4km/h 87% 0.00in /  0mm
06:04 37.4 °F /  3 °C 33.9 °F /  1.1 °C 29.42in /  996.2hPa WSW 8.0mph /  12.9km/h 17.0mph /  27.4km/h 87% 0.00in /  0mm
06:09 37.3 °F /  2.9 °C 33.5 °F /  0.8 °C 29.42in /  996.2hPa SW 7.0mph /  11.3km/h 15.0mph /  24.1km/h 86% 0.00in /  0mm
06:14 37.3 °F /  2.9 °C 33.5 °F /  0.8 °C 29.43in /  996.5hPa West 11.0mph /  17.7km/h 18.0mph /  29km/h 86% 0.00in /  0mm
06:19 37.3 °F /  2.9 °C 33.5 °F /  0.8 °C 29.43in /  996.5hPa SW 14.0mph /  22.5km/h 17.0mph /  27.4km/h 86% 0.00in /  0mm
06:24 37.3 °F /  2.9 °C 33.5 °F /  0.8 °C 29.43in /  996.5hPa West 5.0mph /  8km/h 15.0mph /  24.1km/h 86% 0.00in /  0mm
06:29 37.3 °F /  2.9 °C 33.2 °F /  0.7 °C 29.43in /  996.5hPa WSW 10.0mph /  16.1km/h 18.0mph /  29km/h 85% 0.00in /  0mm
06:34 37.4 °F /  3 °C 33.3 °F /  0.7 °C 29.43in /  996.5hPa SW 9.0mph /  14.5km/h 18.0mph /  29km/h 85% 0.00in /  0mm
06:39 37.4 °F /  3 °C 33.0 °F /  0.6 °C 29.43in /  996.5hPa WSW 10.0mph /  16.1km/h 17.0mph /  27.4km/h 84% 0.00in /  0mm
06:44 37.5 °F /  3.1 °C 33.1 °F /  0.6 °C 29.43in /  996.5hPa WSW 11.0mph /  17.7km/h 22.0mph /  35.4km/h 84% 0.00in /  0mm
06:49 37.4 °F /  3 °C 33.0 °F /  0.6 °C 29.43in /  996.5hPa WSW 9.0mph /  14.5km/h 22.0mph /  35.4km/h 84% 0.00in /  0mm
06:54 37.4 °F /  3 °C 33.0 °F /  0.6 °C 29.43in /  996.5hPa WSW 8.0mph /  12.9km/h 19.0mph /  30.6km/h 84% 0.00in /  0mm
06:59 37.4 °F /  3 °C 33.3 °F /  0.7 °C 29.43in /  996.5hPa SW 9.0mph /  14.5km/h 18.0mph /  29km/h 85% 0.00in /  0mm
07:04 37.4 °F /  3 °C 33.3 °F /  0.7 °C 29.43in /  996.5hPa SSW 9.0mph /  14.5km/h 16.0mph /  25.7km/h 85% 0.00in /  0mm
07:09 37.4 °F /  3 °C 33.3 °F /  0.7 °C 29.43in /  996.5hPa WSW 9.0mph /  14.5km/h 18.0mph /  29km/h 85% 0.00in /  0mm
07:14 37.4 °F /  3 °C 33.3 °F /  0.7 °C 29.43in /  996.5hPa WSW 9.0mph /  14.5km/h 15.0mph /  24.1km/h 85% 0.00in /  0mm
07:19 37.4 °F /  3 °C 33.3 °F /  0.7 °C 29.43in /  996.5hPa WSW 9.0mph /  14.5km/h 25.0mph /  40.2km/h 85% 0.00in /  0mm
07:24 37.4 °F /  3 °C 33.0 °F /  0.6 °C 29.43in /  996.5hPa WSW 8.0mph /  12.9km/h 20.0mph /  32.2km/h 84% 0.00in /  0mm
07:29 37.4 °F /  3 °C 33.0 °F /  0.6 °C 29.43in /  996.5hPa West 9.0mph /  14.5km/h 19.0mph /  30.6km/h 84% 0.00in /  0mm
07:34 37.4 °F /  3 °C 32.7 °F /  0.4 °C 29.43in /  996.5hPa West 7.0mph /  11.3km/h 24.0mph /  38.6km/h 83% 0.00in /  0mm
07:39 37.4 °F /  3 °C 32.7 °F /  0.4 °C 29.42in /  996.2hPa WSW 11.0mph /  17.7km/h 24.0mph /  38.6km/h 83% 0.00in /  0mm
07:44 37.4 °F /  3 °C 32.7 °F /  0.4 °C 29.42in /  996.2hPa WSW 10.0mph /  16.1km/h 20.0mph /  32.2km/h 83% 0.00in /  0mm
07:49 37.4 °F /  3 °C 32.7 °F /  0.4 °C 29.42in /  996.2hPa WSW 10.0mph /  16.1km/h 20.0mph /  32.2km/h 83% 0.00in /  0mm
07:54 37.4 °F /  3 °C 32.4 °F /  0.2 °C 29.42in /  996.2hPa WSW 10.0mph /  16.1km/h 20.0mph /  32.2km/h 82% 0.00in /  0mm
07:59 37.3 °F /  2.9 °C 32.3 °F /  0.2 °C 29.42in /  996.2hPa WSW 9.0mph /  14.5km/h 16.0mph /  25.7km/h 82% 0.00in /  0mm
08:04 37.4 °F /  3 °C 32.4 °F /  0.2 °C 29.42in /  996.2hPa WSW 10.0mph /  16.1km/h 21.0mph /  33.8km/h 82% 0.00in /  0mm
08:09 37.3 °F /  2.9 °C 32.3 °F /  0.2 °C 29.42in /  996.2hPa SW 6.0mph /  9.7km/h 21.0mph /  33.8km/h 82% 0.00in /  0mm
08:14 37.2 °F /  2.9 °C 32.2 °F /  0.1 °C 29.42in /  996.2hPa WSW 9.0mph /  14.5km/h 20.0mph /  32.2km/h 82% 0.00in /  0mm
08:19 37.1 °F /  2.8 °C 32.4 °F /  0.2 °C 29.42in /  996.2hPa South 11.0mph /  17.7km/h 20.0mph /  32.2km/h 83% 0.00in /  0mm
08:24 37.0 °F /  2.8 °C 32.3 °F /  0.2 °C 29.42in /  996.2hPa WSW 13.0mph /  20.9km/h 25.0mph /  40.2km/h 83% 0.00in /  0mm
08:29 36.9 °F /  2.7 °C 32.5 °F /  0.3 °C 29.42in /  996.2hPa SW 16.0mph /  25.7km/h 22.0mph /  35.4km/h 84% 0.00in /  0mm
08:34 36.7 °F /  2.6 °C 32.6 °F /  0.3 °C 29.42in /  996.2hPa West 13.0mph /  20.9km/h 22.0mph /  35.4km/h 85% 0.00in /  0mm
08:39 36.6 °F /  2.6 °C 32.5 °F /  0.3 °C 29.42in /  996.2hPa SW 8.0mph /  12.9km/h 21.0mph /  33.8km/h 85% 0.00in /  0mm
08:44 36.5 °F /  2.5 °C 32.7 °F /  0.4 °C 29.42in /  996.2hPa SW 11.0mph /  17.7km/h 21.0mph /  33.8km/h 86% 0.00in /  0mm
08:49 36.4 °F /  2.4 °C 32.6 °F /  0.3 °C 29.42in /  996.2hPa WSW 11.0mph /  17.7km/h 22.0mph /  35.4km/h 86% 0.00in /  0mm
08:54 36.3 °F /  2.4 °C 32.5 °F /  0.3 °C 29.42in /  996.2hPa WSW 11.0mph /  17.7km/h 23.0mph /  37km/h 86% 0.00in /  0mm
08:59 36.3 °F /  2.4 °C 32.8 °F /  0.4 °C 29.42in /  996.2hPa WSW 11.0mph /  17.7km/h 23.0mph /  37km/h 87% 0.00in /  0mm
09:04 36.2 °F /  2.3 °C 32.7 °F /  0.4 °C 29.42in /  996.2hPa WSW 10.0mph /  16.1km/h 19.0mph /  30.6km/h 87% 0.00in /  0mm
09:09 36.1 °F /  2.3 °C 32.6 °F /  0.3 °C 29.42in /  996.2hPa WSW 6.0mph /  9.7km/h 20.0mph /  32.2km/h 87% 0.00in /  0mm
09:14 36.0 °F /  2.2 °C 32.8 °F /  0.4 °C 29.42in /  996.2hPa WSW 10.0mph /  16.1km/h 20.0mph /  32.2km/h 88% 0.00in /  0mm
09:19 36.0 °F /  2.2 °C 32.8 °F /  0.4 °C 29.42in /  996.2hPa WSW 9.0mph /  14.5km/h 17.0mph /  27.4km/h 88% 0.00in /  0mm
09:24 36.1 °F /  2.3 °C 32.9 °F /  0.5 °C 29.42in /  996.2hPa SW 8.0mph /  12.9km/h 22.0mph /  35.4km/h 88% 0.00in /  0mm
09:29 36.0 °F /  2.2 °C 32.8 °F /  0.4 °C 29.42in /  996.2hPa WNW 8.0mph /  12.9km/h 21.0mph /  33.8km/h 88% 0.00in /  0mm
09:34 35.9 °F /  2.2 °C 32.7 °F /  0.4 °C 29.42in /  996.2hPa SW 10.0mph /  16.1km/h 19.0mph /  30.6km/h 88% 0.00in /  0mm
09:39 35.9 °F /  2.2 °C 33.0 °F /  0.6 °C 29.42in /  996.2hPa West 10.0mph /  16.1km/h 21.0mph /  33.8km/h 89% 0.00in /  0mm
09:44 35.9 °F /  2.2 °C 33.0 °F /  0.6 °C 29.43in /  996.5hPa WSW 8.0mph /  12.9km/h 21.0mph /  33.8km/h 89% 0.00in /  0mm
09:49 35.7 °F /  2.1 °C 32.8 °F /  0.4 °C 29.42in /  996.2hPa WSW 11.0mph /  17.7km/h 21.0mph /  33.8km/h 89% 0.00in /  0mm
09:54 35.6 °F /  2 °C 32.7 °F /  0.4 °C 29.42in /  996.2hPa WSW 12.0mph /  19.3km/h 21.0mph /  33.8km/h 89% 0.00in /  0mm
09:59 35.6 °F /  2 °C 33.0 °F /  0.6 °C 29.43in /  996.5hPa WSW 11.0mph /  17.7km/h 19.0mph /  30.6km/h 90% 0.00in /  0mm
10:04 35.6 °F /  2 °C 33.0 °F /  0.6 °C 29.42in /  996.2hPa WSW 10.0mph /  16.1km/h 19.0mph /  30.6km/h 90% 0.00in /  0mm
10:09 35.6 °F /  2 °C 33.0 °F /  0.6 °C 29.43in /  996.5hPa WSW 11.0mph /  17.7km/h 19.0mph /  30.6km/h 90% 0.00in /  0mm
10:14 35.6 °F /  2 °C 33.0 °F /  0.6 °C 29.43in /  996.5hPa West 7.0mph /  11.3km/h 20.0mph /  32.2km/h 90% 0.00in /  0mm
10:19 35.4 °F /  1.9 °C 32.8 °F /  0.4 °C 29.43in /  996.5hPa WSW 11.0mph /  17.7km/h 22.0mph /  35.4km/h 90% 0.00in /  0mm
10:24 35.4 °F /  1.9 °C 32.8 °F /  0.4 °C 29.43in /  996.5hPa WSW 10.0mph /  16.1km/h 22.0mph /  35.4km/h 90% 0.00in /  0mm
10:29 35.4 °F /  1.9 °C 32.8 °F /  0.4 °C 29.43in /  996.5hPa SW 11.0mph /  17.7km/h 16.0mph /  25.7km/h 90% 0.00in /  0mm
10:34 35.3 °F /  1.8 °C 32.7 °F /  0.4 °C 29.43in /  996.5hPa WSW 11.0mph /  17.7km/h 23.0mph /  37km/h 90% 0.00in /  0mm
10:39 35.3 °F /  1.8 °C 32.7 °F /  0.4 °C 29.43in /  996.5hPa West 13.0mph /  20.9km/h 24.0mph /  38.6km/h 90% 0.01in /  0.25mm
10:44 35.3 °F /  1.8 °C 32.9 °F /  0.5 °C 29.43in /  996.5hPa West 6.0mph /  9.7km/h 20.0mph /  32.2km/h 91% 0.01in /  0.25mm
10:49 35.2 °F /  1.8 °C 32.8 °F /  0.4 °C 29.43in /  996.5hPa WSW 8.0mph /  12.9km/h 20.0mph /  32.2km/h 91% 0.01in /  0.25mm
10:54 35.3 °F /  1.8 °C 32.9 °F /  0.5 °C 29.43in /  996.5hPa WSW 10.0mph /  16.1km/h 20.0mph /  32.2km/h 91% 0.01in /  0.25mm
10:59 35.3 °F /  1.8 °C 32.9 °F /  0.5 °C 29.43in /  996.5hPa WSW 9.0mph /  14.5km/h 18.0mph /  29km/h 91% 0.01in /  0.25mm
11:04 35.3 °F /  1.8 °C 32.9 °F /  0.5 °C 29.43in /  996.5hPa WSW 10.0mph /  16.1km/h 18.0mph /  29km/h 91% 0.01in /  0.25mm
11:09 35.2 °F /  1.8 °C 32.8 °F /  0.4 °C 29.43in /  996.5hPa WSW 10.0mph /  16.1km/h 21.0mph /  33.8km/h 91% 0.01in /  0.25mm
11:14 35.2 °F /  1.8 °C 32.8 °F /  0.4 °C 29.43in /  996.5hPa WSW 10.0mph /  16.1km/h 21.0mph /  33.8km/h 91% 0.01in /  0.25mm
11:19 35.1 °F /  1.7 °C 32.7 °F /  0.4 °C 29.42in /  996.2hPa WSW 9.0mph /  14.5km/h 19.0mph /  30.6km/h 91% 0.01in /  0.25mm
11:24 35.1 °F /  1.7 °C 32.7 °F /  0.4 °C 29.42in /  996.2hPa WSW 8.0mph /  12.9km/h 22.0mph /  35.4km/h 91% 0.01in /  0.25mm
11:29 35.1 °F /  1.7 °C 32.7 °F /  0.4 °C 29.42in /  996.2hPa SW 5.0mph /  8km/h 25.0mph /  40.2km/h 91% 0.02in /  0.51mm
11:34 35.2 °F /  1.8 °C 33.1 °F /  0.6 °C 29.42in /  996.2hPa WSW 8.0mph /  12.9km/h 18.0mph /  29km/h 92% 0.02in /  0.51mm
11:39 35.2 °F /  1.8 °C 32.8 °F /  0.4 °C 29.42in /  996.2hPa WSW 11.0mph /  17.7km/h 20.0mph /  32.2km/h 91% 0.01in /  0.25mm
11:44 35.2 °F /  1.8 °C 33.1 °F /  0.6 °C 29.42in /  996.2hPa WSW 10.0mph /  16.1km/h 20.0mph /  32.2km/h 92% 0.01in /  0.25mm
11:49 35.0 °F /  1.7 °C 32.6 °F /  0.3 °C 29.41in /  995.8hPa WNW 7.0mph /  11.3km/h 19.0mph /  30.6km/h 91% 0.01in /  0.25mm
11:54 35.0 °F /  1.7 °C 32.9 °F /  0.5 °C 29.41in /  995.8hPa South 18.0mph /  29km/h 23.0mph /  37km/h 92% 0.01in /  0.25mm
11:59 34.8 °F /  1.6 °C 32.7 °F /  0.4 °C 29.41in /  995.8hPa WSW 10.0mph /  16.1km/h 23.0mph /  37km/h 92% 0.02in /  0.51mm
12:04 35.0 °F /  1.7 °C 32.9 °F /  0.5 °C 29.41in /  995.8hPa WSW 10.0mph /  16.1km/h 22.0mph /  35.4km/h 92% 0.02in /  0.51mm
12:09 35.1 °F /  1.7 °C 33.0 °F /  0.6 °C 29.41in /  995.8hPa SW 10.0mph /  16.1km/h 17.0mph /  27.4km/h 92% 0.02in /  0.51mm
12:14 35.2 °F /  1.8 °C 33.1 °F /  0.6 °C 29.41in /  995.8hPa West 9.0mph /  14.5km/h 24.0mph /  38.6km/h 92% 0.02in /  0.51mm
12:19 35.2 °F /  1.8 °C 33.1 °F /  0.6 °C 29.41in /  995.8hPa WSW 12.0mph /  19.3km/h 20.0mph /  32.2km/h 92% 0.03in /  0.76mm
12:24 35.2 °F /  1.8 °C 33.1 °F /  0.6 °C 29.40in /  995.5hPa SW 16.0mph /  25.7km/h 23.0mph /  37km/h 92% 0.03in /  0.76mm
12:29 35.2 °F /  1.8 °C 33.1 °F /  0.6 °C 29.41in /  995.8hPa WSW 11.0mph /  17.7km/h 24.0mph /  38.6km/h 92% 0.02in /  0.51mm
12:34 35.2 °F /  1.8 °C 33.1 °F /  0.6 °C 29.41in /  995.8hPa WSW 10.0mph /  16.1km/h 24.0mph /  38.6km/h 92% 0.02in /  0.51mm
12:39 35.1 °F /  1.7 °C 33.0 °F /  0.6 °C 29.41in /  995.8hPa WSW 10.0mph /  16.1km/h 20.0mph /  32.2km/h 92% 0.02in /  0.51mm
12:44 35.1 °F /  1.7 °C 33.0 °F /  0.6 °C 29.40in /  995.5hPa WSW 11.0mph /  17.7km/h 22.0mph /  35.4km/h 92% 0.03in /  0.76mm
12:49 35.2 °F /  1.8 °C 33.1 °F /  0.6 °C 29.40in /  995.5hPa SW 24.0mph /  38.6km/h 24.0mph /  38.6km/h 92% 0.03in /  0.76mm
12:54 35.3 °F /  1.8 °C 33.2 °F /  0.7 °C 29.40in /  995.5hPa SW 7.0mph /  11.3km/h 24.0mph /  38.6km/h 92% 0.03in /  0.76mm
12:59 35.3 °F /  1.8 °C 33.2 °F /  0.7 °C 29.40in /  995.5hPa SW 8.0mph /  12.9km/h 28.0mph /  45.1km/h 92% 0.02in /  0.51mm
13:04 35.4 °F /  1.9 °C 33.3 °F /  0.7 °C 29.40in /  995.5hPa WSW 9.0mph /  14.5km/h 28.0mph /  45.1km/h 92% 0.02in /  0.51mm
13:09 35.2 °F /  1.8 °C 33.1 °F /  0.6 °C 29.41in /  995.8hPa WSW 10.0mph /  16.1km/h 25.0mph /  40.2km/h 92% 0.02in /  0.51mm
13:14 35.2 °F /  1.8 °C 33.1 °F /  0.6 °C 29.40in /  995.5hPa WSW 18.0mph /  29km/h 21.0mph /  33.8km/h 92% 0.02in /  0.51mm
13:19 35.1 °F /  1.7 °C 33.0 °F /  0.6 °C 29.40in /  995.5hPa SW 5.0mph /  8km/h 17.0mph /  27.4km/h 92% 0.01in /  0.25mm
13:24 35.3 °F /  1.8 °C 33.2 °F /  0.7 °C 29.41in /  995.8hPa WSW 11.0mph /  17.7km/h 17.0mph /  27.4km/h 92% 0.01in /  0.25mm
13:29 35.3 °F /  1.8 °C 33.2 °F /  0.7 °C 29.41in /  995.8hPa WSW 6.0mph /  9.7km/h 17.0mph /  27.4km/h 92% 0.02in /  0.51mm
13:34 35.4 °F /  1.9 °C 33.3 °F /  0.7 °C 29.41in /  995.8hPa WSW 9.0mph /  14.5km/h 20.0mph /  32.2km/h 92% 0.02in /  0.51mm
13:39 35.3 °F /  1.8 °C 33.2 °F /  0.7 °C 29.41in /  995.8hPa WSW 10.0mph /  16.1km/h 21.0mph /  33.8km/h 92% 0.02in /  0.51mm
13:44 35.3 °F /  1.8 °C 33.2 °F /  0.7 °C 29.41in /  995.8hPa WSW 10.0mph /  16.1km/h 21.0mph /  33.8km/h 92% 0.01in /  0.25mm
13:49 35.3 °F /  1.8 °C 33.2 °F /  0.7 °C 29.41in /  995.8hPa West 9.0mph /  14.5km/h 19.0mph /  30.6km/h 92% 0.01in /  0.25mm
13:54 35.4 °F /  1.9 °C 33.3 °F /  0.7 °C 29.41in /  995.8hPa SW 9.0mph /  14.5km/h 19.0mph /  30.6km/h 92% 0.02in /  0.51mm
13:59 35.3 °F /  1.8 °C 33.2 °F /  0.7 °C 29.42in /  996.2hPa SW 4.0mph /  6.4km/h 18.0mph /  29km/h 92% 0.02in /  0.51mm
14:04 35.4 °F /  1.9 °C 33.3 °F /  0.7 °C 29.42in /  996.2hPa WSW 8.0mph /  12.9km/h 18.0mph /  29km/h 92% 0.02in /  0.51mm
14:09 35.4 °F /  1.9 °C 33.3 °F /  0.7 °C 29.42in /  996.2hPa WSW 7.0mph /  11.3km/h 16.0mph /  25.7km/h 92% 0.02in /  0.51mm
14:14 35.4 °F /  1.9 °C 33.6 °F /  0.9 °C 29.42in /  996.2hPa WNW 7.0mph /  11.3km/h 17.0mph /  27.4km/h 93% 0.02in /  0.51mm
14:19 35.4 °F /  1.9 °C 33.6 °F /  0.9 °C 29.42in /  996.2hPa WSW 6.0mph /  9.7km/h 16.0mph /  25.7km/h 93% 0.02in /  0.51mm
14:24 35.5 °F /  1.9 °C 33.7 °F /  0.9 °C 29.42in /  996.2hPa West 12.0mph /  19.3km/h 17.0mph /  27.4km/h 93% 0.02in /  0.51mm
14:29 35.6 °F /  2 °C 33.8 °F /  1 °C 29.43in /  996.5hPa WSW 13.0mph /  20.9km/h 15.0mph /  24.1km/h 93% 0.01in /  0.25mm
14:34 35.7 °F /  2.1 °C 33.9 °F /  1.1 °C 29.43in /  996.5hPa WSW 7.0mph /  11.3km/h 15.0mph /  24.1km/h 93% 0.01in /  0.25mm
14:39 35.9 °F /  2.2 °C 34.1 °F /  1.2 °C 29.43in /  996.5hPa WSW 7.0mph /  11.3km/h 15.0mph /  24.1km/h 93% 0.01in /  0.25mm
14:44 36.1 °F /  2.3 °C 34.3 °F /  1.3 °C 29.43in /  996.5hPa WSW 6.0mph /  9.7km/h 15.0mph /  24.1km/h 93% 0.02in /  0.51mm
14:49 36.2 °F /  2.3 °C 34.4 °F /  1.3 °C 29.44in /  996.8hPa WSW 5.0mph /  8km/h 13.0mph /  20.9km/h 93% 0.02in /  0.51mm
14:54 36.4 °F /  2.4 °C 34.6 °F /  1.4 °C 29.44in /  996.8hPa West 5.0mph /  8km/h 13.0mph /  20.9km/h 93% 0.01in /  0.25mm
14:59 36.5 °F /  2.5 °C 34.7 °F /  1.5 °C 29.45in /  997.2hPa WSW 3.0mph /  4.8km/h 8.0mph /  12.9km/h 93% 0.01in /  0.25mm
15:04 36.6 °F /  2.6 °C 34.5 °F /  1.4 °C 29.45in /  997.2hPa WNW 8.0mph /  12.9km/h 13.0mph /  20.9km/h 92% 0.01in /  0.25mm
15:09 36.7 °F /  2.6 °C 34.6 °F /  1.4 °C 29.46in /  997.5hPa WNW 7.0mph /  11.3km/h 14.0mph /  22.5km/h 92% 0.01in /  0.25mm
15:14 36.6 °F /  2.6 °C 34.5 °F /  1.4 °C 29.46in /  997.5hPa West 6.0mph /  9.7km/h 14.0mph /  22.5km/h 92% 0.01in /  0.25mm
15:19 36.6 °F /  2.6 °C 34.5 °F /  1.4 °C 29.47in /  997.9hPa WNW 6.0mph /  9.7km/h 11.0mph /  17.7km/h 92% 0.02in /  0.51mm
15:24 36.6 °F /  2.6 °C 34.5 °F /  1.4 °C 29.47in /  997.9hPa WNW 12.0mph /  19.3km/h 13.0mph /  20.9km/h 92% 0.02in /  0.51mm
15:34 36.2 °F /  2.3 °C 33.8 °F /  1 °C 29.48in /  998.2hPa NW 4.0mph /  6.4km/h 11.0mph /  17.7km/h 91% 0.03in /  0.76mm
15:39 36.1 °F /  2.3 °C 33.7 °F /  0.9 °C 29.48in /  998.2hPa WNW 6.0mph /  9.7km/h 11.0mph /  17.7km/h 91% 0.04in /  1.02mm
15:44 35.9 °F /  2.2 °C 33.5 °F /  0.8 °C 29.48in /  998.2hPa WNW 5.0mph /  8km/h 9.0mph /  14.5km/h 91% 0.03in /  0.76mm
15:49 35.8 °F /  2.1 °C 33.4 °F /  0.8 °C 29.49in /  998.5hPa WNW 6.0mph /  9.7km/h 17.0mph /  27.4km/h 91% 0.04in /  1.02mm
15:54 35.7 °F /  2.1 °C 33.1 °F /  0.6 °C 29.49in /  998.5hPa West 8.0mph /  12.9km/h 17.0mph /  27.4km/h 90% 0.04in /  1.02mm
15:59 35.9 °F /  2.2 °C 33.0 °F /  0.6 °C 29.50in /  998.9hPa West 10.0mph /  16.1km/h 13.0mph /  20.9km/h 89% 0.04in /  1.02mm
16:04 36.1 °F /  2.3 °C 32.9 °F /  0.5 °C 29.50in /  998.9hPa West 3.0mph /  4.8km/h 15.0mph /  24.1km/h 88% 0.04in /  1.02mm
16:19 36.2 °F /  2.3 °C 32.4 °F /  0.2 °C 29.51in /  999.2hPa WNW 10.0mph /  16.1km/h 15.0mph /  24.1km/h 86% 0.03in /  0.76mm
16:24 36.3 °F /  2.4 °C 32.5 °F /  0.3 °C 29.52in /  999.5hPa West 9.0mph /  14.5km/h 12.0mph /  19.3km/h 86% 0.03in /  0.76mm
16:29 36.2 °F /  2.3 °C 32.1 °F /  0.1 °C 29.52in /  999.5hPa WNW 11.0mph /  17.7km/h 16.0mph /  25.7km/h 85% 0.02in /  0.51mm
16:34 36.2 °F /  2.3 °C 31.8 °F /  -0.1 °C 29.52in /  999.5hPa NNW 8.0mph /  12.9km/h 18.0mph /  29km/h 84% 0.02in /  0.51mm
16:39 36.2 °F /  2.3 °C 31.5 °F /  -0.3 °C 29.53in /  999.9hPa WNW 9.0mph /  14.5km/h 18.0mph /  29km/h 83% 0.01in /  0.25mm
16:49 36.1 °F /  2.3 °C 31.7 °F /  -0.2 °C 29.53in /  999.9hPa WNW 5.0mph /  8km/h 12.0mph /  19.3km/h 84% 0.00in /  0mm
16:59 35.9 °F /  2.2 °C 31.8 °F /  -0.1 °C 29.54in /  1000.2hPa WNW 7.0mph /  11.3km/h 18.0mph /  29km/h 85% 0.00in /  0mm
17:09 35.9 °F /  2.2 °C 31.8 °F /  -0.1 °C 29.54in /  1000.2hPa West 7.0mph /  11.3km/h 14.0mph /  22.5km/h 85% 0.00in /  0mm
17:14 35.8 °F /  2.1 °C 31.7 °F /  -0.2 °C 29.54in /  1000.2hPa West 5.0mph /  8km/h 11.0mph /  17.7km/h 85% 0.00in /  0mm
17:19 35.7 °F /  2.1 °C 31.6 °F /  -0.2 °C 29.55in /  1000.6hPa West 5.0mph /  8km/h 9.0mph /  14.5km/h 85% 0.00in /  0mm
17:24 35.7 °F /  2.1 °C 31.6 °F /  -0.2 °C 29.55in /  1000.6hPa West 3.0mph /  4.8km/h 8.0mph /  12.9km/h 85% 0.00in /  0mm
17:29 35.6 °F /  2 °C 31.8 °F /  -0.1 °C 29.55in /  1000.6hPa West 3.0mph /  4.8km/h 6.0mph /  9.7km/h 86% 0.00in /  0mm
17:34 35.6 °F /  2 °C 31.8 °F /  -0.1 °C 29.55in /  1000.6hPa WSW 2.0mph /  3.2km/h 9.0mph /  14.5km/h 86% 0.00in /  0mm
17:39 35.6 °F /  2 °C 31.8 °F /  -0.1 °C 29.55in /  1000.6hPa WSW 4.0mph /  6.4km/h 8.0mph /  12.9km/h 86% 0.00in /  0mm
17:49 35.7 °F /  2.1 °C 32.2 °F /  0.1 °C 29.56in /  1000.9hPa WSW 4.0mph /  6.4km/h 8.0mph /  12.9km/h 87% 0.00in /  0mm
17:54 35.7 °F /  2.1 °C 32.2 °F /  0.1 °C 29.56in /  1000.9hPa WSW 4.0mph /  6.4km/h 8.0mph /  12.9km/h 87% 0.00in /  0mm
17:59 35.7 °F /  2.1 °C 32.2 °F /  0.1 °C 29.56in /  1000.9hPa WSW 4.0mph /  6.4km/h 7.0mph /  11.3km/h 87% 0.00in /  0mm
18:04 35.7 °F /  2.1 °C 32.5 °F /  0.3 °C 29.56in /  1000.9hPa WSW 4.0mph /  6.4km/h 9.0mph /  14.5km/h 88% 0.00in /  0mm
18:09 35.7 °F /  2.1 °C 32.5 °F /  0.3 °C 29.56in /  1000.9hPa WSW 3.0mph /  4.8km/h 9.0mph /  14.5km/h 88% 0.00in /  0mm
18:19 35.9 °F /  2.2 °C 32.7 °F /  0.4 °C 29.57in /  1001.2hPa WSW 5.0mph /  8km/h 13.0mph /  20.9km/h 88% 0.00in /  0mm
18:24 35.9 °F /  2.2 °C 32.7 °F /  0.4 °C 29.57in /  1001.2hPa WSW 7.0mph /  11.3km/h 11.0mph /  17.7km/h 88% 0.00in /  0mm
18:29 36.1 °F /  2.3 °C 32.6 °F /  0.3 °C 29.57in /  1001.2hPa SW 11.0mph /  17.7km/h 12.0mph /  19.3km/h 87% 0.00in /  0mm
18:34 36.2 °F /  2.3 °C 32.7 °F /  0.4 °C 29.57in /  1001.2hPa West 7.0mph /  11.3km/h 18.0mph /  29km/h 87% 0.00in /  0mm
18:59 36.3 °F /  2.4 °C 32.5 °F /  0.3 °C 29.58in /  1001.6hPa West 7.0mph /  11.3km/h 17.0mph /  27.4km/h 86% 0.00in /  0mm
19:04 36.3 °F /  2.4 °C 32.2 °F /  0.1 °C 29.59in /  1001.9hPa West 6.0mph /  9.7km/h 12.0mph /  19.3km/h 85% 0.00in /  0mm
19:09 36.2 °F /  2.3 °C 32.1 °F /  0.1 °C 29.59in /  1001.9hPa West 6.0mph /  9.7km/h 13.0mph /  20.9km/h 85% 0.00in /  0mm
19:14 36.1 °F /  2.3 °C 32.0 °F /  0 °C 29.59in /  1001.9hPa West 7.0mph /  11.3km/h 17.0mph /  27.4km/h 85% 0.00in /  0mm
19:19 36.1 °F /  2.3 °C 31.7 °F /  -0.2 °C 29.59in /  1001.9hPa West 17.0mph /  27.4km/h 17.0mph /  27.4km/h 84% 0.00in /  0mm
19:24 36.1 °F /  2.3 °C 31.7 °F /  -0.2 °C 29.59in /  1001.9hPa NW 8.0mph /  12.9km/h 17.0mph /  27.4km/h 84% 0.00in /  0mm
19:29 36.0 °F /  2.2 °C 31.6 °F /  -0.2 °C 29.60in /  1002.3hPa West 5.0mph /  8km/h 17.0mph /  27.4km/h 84% 0.00in /  0mm
19:34 35.9 °F /  2.2 °C 31.5 °F /  -0.3 °C 29.60in /  1002.3hPa WSW 4.0mph /  6.4km/h 12.0mph /  19.3km/h 84% 0.00in /  0mm
19:39 35.7 °F /  2.1 °C 31.3 °F /  -0.4 °C 29.60in /  1002.3hPa WSW 13.0mph /  20.9km/h 15.0mph /  24.1km/h 84% 0.00in /  0mm
19:44 35.5 °F /  1.9 °C 30.8 °F /  -0.7 °C 29.60in /  1002.3hPa West 10.0mph /  16.1km/h 12.0mph /  19.3km/h 83% 0.00in /  0mm
19:49 35.4 °F /  1.9 °C 30.8 °F /  -0.7 °C 29.60in /  1002.3hPa NNW 4.0mph /  6.4km/h 13.0mph /  20.9km/h 83% 0.00in /  0mm
19:54 35.2 °F /  1.8 °C 30.6 °F /  -0.8 °C 29.60in /  1002.3hPa West 7.0mph /  11.3km/h 15.0mph /  24.1km/h 83% 0.00in /  0mm
19:59 35.0 °F /  1.7 °C 30.4 °F /  -0.9 °C 29.60in /  1002.3hPa West 7.0mph /  11.3km/h 16.0mph /  25.7km/h 83% 0.00in /  0mm
20:05 35.0 °F /  1.7 °C 30.4 °F /  -0.9 °C 29.60in /  1002.3hPa West 4.0mph /  6.4km/h 10.0mph /  16.1km/h 83% 0.00in /  0mm
20:14 34.8 °F /  1.6 °C 30.5 °F /  -0.8 °C 29.61in /  1002.6hPa West 6.0mph /  9.7km/h 14.0mph /  22.5km/h 84% 0.00in /  0mm
20:19 34.7 °F /  1.5 °C 30.4 °F /  -0.9 °C 29.61in /  1002.6hPa West 7.0mph /  11.3km/h 14.0mph /  22.5km/h 84% 0.00in /  0mm
20:24 34.6 °F /  1.4 °C 30.3 °F /  -0.9 °C 29.61in /  1002.6hPa WSW 11.0mph /  17.7km/h 13.0mph /  20.9km/h 84% 0.00in /  0mm
20:29 34.6 °F /  1.4 °C 30.0 °F /  -1.1 °C 29.61in /  1002.6hPa WSW 7.0mph /  11.3km/h 14.0mph /  22.5km/h 83% 0.00in /  0mm
20:34 34.6 °F /  1.4 °C 30.0 °F /  -1.1 °C 29.61in /  1002.6hPa WNW 12.0mph /  19.3km/h 15.0mph /  24.1km/h 83% 0.00in /  0mm
20:39 34.4 °F /  1.3 °C 29.8 °F /  -1.2 °C 29.61in /  1002.6hPa WSW 7.0mph /  11.3km/h 12.0mph /  19.3km/h 83% 0.00in /  0mm
20:44 34.4 °F /  1.3 °C 29.8 °F /  -1.2 °C 29.61in /  1002.6hPa West 8.0mph /  12.9km/h 15.0mph /  24.1km/h 83% 0.00in /  0mm
20:49 34.5 °F /  1.4 °C 29.9 °F /  -1.2 °C 29.61in /  1002.6hPa West 9.0mph /  14.5km/h 13.0mph /  20.9km/h 83% 0.00in /  0mm
20:54 34.4 °F /  1.3 °C 29.8 °F /  -1.2 °C 29.61in /  1002.6hPa WSW 8.0mph /  12.9km/h 16.0mph /  25.7km/h 83% 0.00in /  0mm
21:04 34.5 °F /  1.4 °C 30.2 °F /  -1 °C 29.61in /  1002.6hPa WSW 8.0mph /  12.9km/h 24.0mph /  38.6km/h 84% 0.00in /  0mm
21:09 34.4 °F /  1.3 °C 30.1 °F /  -1.1 °C 29.62in /  1002.9hPa WSW 7.0mph /  11.3km/h 24.0mph /  38.6km/h 84% 0.00in /  0mm
21:14 34.4 °F /  1.3 °C 30.4 °F /  -0.9 °C 29.62in /  1002.9hPa WSW 6.0mph /  9.7km/h 12.0mph /  19.3km/h 85% 0.00in /  0mm
21:19 34.4 °F /  1.3 °C 30.4 °F /  -0.9 °C 29.62in /  1002.9hPa WSW 7.0mph /  11.3km/h 14.0mph /  22.5km/h 85% 0.00in /  0mm
21:24 34.6 °F /  1.4 °C 30.6 °F /  -0.8 °C 29.62in /  1002.9hPa West 10.0mph /  16.1km/h 18.0mph /  29km/h 85% 0.00in /  0mm
21:29 34.7 °F /  1.5 °C 30.7 °F /  -0.7 °C 29.62in /  1002.9hPa WSW 8.0mph /  12.9km/h 18.0mph /  29km/h 85% 0.00in /  0mm
21:34 34.8 °F /  1.6 °C 30.8 °F /  -0.7 °C 29.62in /  1002.9hPa WSW 8.0mph /  12.9km/h 18.0mph /  29km/h 85% 0.00in /  0mm
21:39 35.0 °F /  1.7 °C 31.2 °F /  -0.4 °C 29.62in /  1002.9hPa WSW 6.0mph /  9.7km/h 17.0mph /  27.4km/h 86% 0.00in /  0mm
21:44 35.0 °F /  1.7 °C 31.2 °F /  -0.4 °C 29.63in /  1003.3hPa West 6.0mph /  9.7km/h 13.0mph /  20.9km/h 86% 0.00in /  0mm
21:49 35.1 °F /  1.7 °C 31.3 °F /  -0.4 °C 29.63in /  1003.3hPa WSW 6.0mph /  9.7km/h 18.0mph /  29km/h 86% 0.00in /  0mm
21:54 35.1 °F /  1.7 °C 31.0 °F /  -0.6 °C 29.63in /  1003.3hPa West 4.0mph /  6.4km/h 14.0mph /  22.5km/h 85% 0.00in /  0mm
21:59 35.1 °F /  1.7 °C 31.0 °F /  -0.6 °C 29.63in /  1003.3hPa WSW 3.0mph /  4.8km/h 14.0mph /  22.5km/h 85% 0.00in /  0mm
22:09 35.2 °F /  1.8 °C 31.1 °F /  -0.5 °C 29.63in /  1003.3hPa West 14.0mph /  22.5km/h 18.0mph /  29km/h 85% 0.00in /  0mm
22:19 35.3 °F /  1.8 °C 31.2 °F /  -0.4 °C 29.63in /  1003.3hPa West 8.0mph /  12.9km/h 17.0mph /  27.4km/h 85% 0.00in /  0mm
22:29 35.4 °F /  1.9 °C 31.0 °F /  -0.6 °C 29.64in /  1003.6hPa WSW 11.0mph /  17.7km/h 16.0mph /  25.7km/h 84% 0.00in /  0mm
22:39 35.4 °F /  1.9 °C 30.8 °F /  -0.7 °C 29.64in /  1003.6hPa West 7.0mph /  11.3km/h 16.0mph /  25.7km/h 83% 0.00in /  0mm
22:44 35.5 °F /  1.9 °C 30.8 °F /  -0.7 °C 29.64in /  1003.6hPa WSW 6.0mph /  9.7km/h 14.0mph /  22.5km/h 83% 0.00in /  0mm
22:49 35.5 °F /  1.9 °C 30.8 °F /  -0.7 °C 29.64in /  1003.6hPa West 7.0mph /  11.3km/h 14.0mph /  22.5km/h 83% 0.00in /  0mm
22:59 35.4 °F /  1.9 °C 30.8 °F /  -0.7 °C 29.64in /  1003.6hPa SW 6.0mph /  9.7km/h 11.0mph /  17.7km/h 83% 0.00in /  0mm
23:04 35.4 °F /  1.9 °C 30.5 °F /  -0.8 °C 29.64in /  1003.6hPa West 8.0mph /  12.9km/h 21.0mph /  33.8km/h 82% 0.00in /  0mm
23:09 35.4 °F /  1.9 °C 30.5 °F /  -0.8 °C 29.64in /  1003.6hPa WSW 9.0mph /  14.5km/h 21.0mph /  33.8km/h 82% 0.00in /  0mm
23:14 35.4 °F /  1.9 °C 30.5 °F /  -0.8 °C 29.64in /  1003.6hPa WSW 8.0mph /  12.9km/h 17.0mph /  27.4km/h 82% 0.00in /  0mm
23:19 35.4 °F /  1.9 °C 30.5 °F /  -0.8 °C 29.64in /  1003.6hPa WSW 14.0mph /  22.5km/h 19.0mph /  30.6km/h 82% 0.00in /  0mm
23:24 35.4 °F /  1.9 °C 30.5 °F /  -0.8 °C 29.65in /  1003.9hPa WSW 8.0mph /  12.9km/h 20.0mph /  32.2km/h 82% 0.00in /  0mm
23:29 35.4 °F /  1.9 °C 30.1 °F /  -1.1 °C 29.64in /  1003.6hPa West 8.0mph /  12.9km/h 20.0mph /  32.2km/h 81% 0.00in /  0mm
23:34 35.4 °F /  1.9 °C 30.1 °F /  -1.1 °C 29.64in /  1003.6hPa West 8.0mph /  12.9km/h 17.0mph /  27.4km/h 81% 0.00in /  0mm
23:39 35.4 °F /  1.9 °C 30.1 °F /  -1.1 °C 29.64in /  1003.6hPa West 9.0mph /  14.5km/h 21.0mph /  33.8km/h 81% 0.00in /  0mm
23:44 35.3 °F /  1.8 °C 30.4 °F /  -0.9 °C 29.64in /  1003.6hPa West 8.0mph /  12.9km/h 21.0mph /  33.8km/h 82% 0.00in /  0mm
23:54 35.2 °F /  1.8 °C 30.3 °F /  -0.9 °C 29.64in /  1003.6hPa WNW 3.0mph /  4.8km/h 14.0mph /  22.5km/h 82% 0.00in /  0mm
23:59 35.0 °F /  1.7 °C 29.8 °F /  -1.2 °C 29.64in /  1003.6hPa WSW 6.0mph /  9.7km/h 18.0mph /  29km/h 81% 0.00in /  0mm
Buffalo, New York, USA
Compliments of Weather Underground - 2.5 mb